createdAt,value
2019-05-19T00:02:20.003Z,99.90
2019-05-19T00:04:48.255Z,99.90
2019-05-19T00:07:16.564Z,99.90
2019-05-19T00:09:44.843Z,99.90
2019-05-19T00:12:13.150Z,99.90
2019-05-19T00:14:41.395Z,99.90
2019-05-19T00:17:09.619Z,99.90
2019-05-19T00:19:37.859Z,99.90
2019-05-19T00:22:06.108Z,99.90
2019-05-19T00:24:34.358Z,99.90
2019-05-19T00:27:02.618Z,99.90
2019-05-19T00:29:30.842Z,99.90
2019-05-19T00:32:01.758Z,99.90
2019-05-19T00:34:30.010Z,99.90
2019-05-19T00:36:58.261Z,99.90
2019-05-19T00:39:26.533Z,99.90
2019-05-19T00:41:54.816Z,99.80
2019-05-19T00:44:23.065Z,99.70
2019-05-19T00:46:51.317Z,99.70
2019-05-19T00:49:19.588Z,99.50
2019-05-19T00:51:47.902Z,99.40
2019-05-19T00:54:16.151Z,99.90
2019-05-19T00:56:44.451Z,99.90
2019-05-19T00:59:12.700Z,99.90
2019-05-19T01:01:40.960Z,99.90
2019-05-19T01:04:09.267Z,99.90
2019-05-19T01:06:37.553Z,99.90
2019-05-19T01:09:06.544Z,99.90
2019-05-19T01:11:34.812Z,99.90
2019-05-19T01:14:03.042Z,99.90
2019-05-19T01:16:31.320Z,99.90
2019-05-19T01:18:59.582Z,99.90
2019-05-19T01:21:27.855Z,99.90
2019-05-19T01:23:56.073Z,99.90
2019-05-19T01:26:24.323Z,99.90
2019-05-19T01:28:52.577Z,99.90
2019-05-19T01:31:20.837Z,99.90
2019-05-19T01:33:49.068Z,99.90
2019-05-19T01:36:17.306Z,99.90
2019-05-19T01:38:45.563Z,99.90
2019-05-19T01:41:13.813Z,99.90
2019-05-19T01:43:42.078Z,99.90
2019-05-19T01:46:10.324Z,99.90
2019-05-19T01:48:38.574Z,99.90
2019-05-19T01:53:34.845Z,99.90
2019-05-19T01:56:03.099Z,99.90
2019-05-19T01:58:31.395Z,99.90
2019-05-19T02:00:59.710Z,99.90
2019-05-19T02:03:28.442Z,99.90
2019-05-19T02:05:56.681Z,99.90
2019-05-19T02:08:24.930Z,99.90
2019-05-19T02:10:53.159Z,99.90
2019-05-19T02:13:21.420Z,99.90
2019-05-19T02:15:49.672Z,99.90
2019-05-19T02:18:17.923Z,99.90
2019-05-19T02:20:46.162Z,99.90
2019-05-19T02:23:14.446Z,99.90
2019-05-19T02:25:42.687Z,99.90
2019-05-19T02:28:10.952Z,99.90
2019-05-19T02:30:39.210Z,99.90
2019-05-19T02:33:07.433Z,99.90
2019-05-19T02:35:35.689Z,99.90
2019-05-19T02:38:03.960Z,99.90
2019-05-19T02:40:32.252Z,99.90
2019-05-19T02:43:00.533Z,99.90
2019-05-19T02:45:29.153Z,99.90
2019-05-19T02:47:57.377Z,99.90
2019-05-19T02:50:25.628Z,99.90
2019-05-19T02:52:53.882Z,99.90
2019-05-19T02:55:22.128Z,99.90
2019-05-19T02:57:50.728Z,99.90
2019-05-19T03:00:22.405Z,99.90
2019-05-19T03:02:50.646Z,99.90
2019-05-19T03:05:18.904Z,99.90
2019-05-19T03:07:47.171Z,99.90
2019-05-19T03:10:15.498Z,99.90
2019-05-19T03:12:43.732Z,99.90
2019-05-19T03:15:12.007Z,99.90
2019-05-19T03:17:40.298Z,99.90
2019-05-19T03:20:08.547Z,99.90
2019-05-19T03:22:36.791Z,99.90
2019-05-19T03:25:07.998Z,99.90
2019-05-19T03:27:36.243Z,99.90
2019-05-19T03:30:25.435Z,99.90
2019-05-19T03:32:55.320Z,99.90
2019-05-19T03:35:23.551Z,99.90
2019-05-19T03:37:51.817Z,99.90
2019-05-19T03:40:20.125Z,99.90
2019-05-19T03:42:50.112Z,99.90
2019-05-19T03:45:18.562Z,99.90
2019-05-19T03:47:46.885Z,99.90
2019-05-19T03:50:15.150Z,99.90
2019-05-19T03:52:43.406Z,99.90
2019-05-19T03:55:11.632Z,99.90
2019-05-19T03:57:39.889Z,99.90
2019-05-19T04:00:08.127Z,99.90
2019-05-19T04:02:36.437Z,99.90
2019-05-19T04:05:08.105Z,99.90
2019-05-19T04:07:36.359Z,99.90
2019-05-19T04:10:05.858Z,99.90
2019-05-19T04:12:34.124Z,99.90
2019-05-19T04:15:02.348Z,99.90
2019-05-19T04:17:30.682Z,99.90
2019-05-19T04:19:59.013Z,99.90
2019-05-19T04:22:27.282Z,99.90
2019-05-19T04:24:55.529Z,99.90
2019-05-19T04:27:23.769Z,99.90
2019-05-19T04:29:52.009Z,99.90
2019-05-19T04:32:20.269Z,99.90
2019-05-19T04:34:48.635Z,99.90
2019-05-19T04:37:16.889Z,99.90
2019-05-19T04:39:45.147Z,99.90
2019-05-19T04:42:13.385Z,99.90
2019-05-19T04:44:41.635Z,99.90
2019-05-19T04:47:09.887Z,99.90
2019-05-19T04:49:38.166Z,99.90
2019-05-19T04:52:07.537Z,99.90
2019-05-19T04:54:46.079Z,99.90
2019-05-19T04:57:14.309Z,99.90
2019-05-19T04:59:42.546Z,99.90
2019-05-19T05:02:10.774Z,99.90
2019-05-19T05:04:39.025Z,99.90
2019-05-19T05:07:07.249Z,99.90
2019-05-19T05:09:35.505Z,99.90
2019-05-19T05:12:03.761Z,99.90
2019-05-19T05:14:31.990Z,99.90
2019-05-19T05:17:00.245Z,99.90
2019-05-19T05:19:28.493Z,99.90
2019-05-19T05:21:56.759Z,99.90
2019-05-19T05:24:28.479Z,99.90
2019-05-19T05:26:54.979Z,99.90
2019-05-19T05:29:23.214Z,99.30
2019-05-19T05:31:51.448Z,99.60
2019-05-19T05:34:19.709Z,99.90
2019-05-19T05:36:47.935Z,99.80
2019-05-19T05:39:16.189Z,99.30
2019-05-19T05:41:44.414Z,99.00
2019-05-19T05:44:12.659Z,98.40
2019-05-19T05:46:40.898Z,97.60
2019-05-19T05:49:09.114Z,97.80
2019-05-19T05:51:37.357Z,97.60
2019-05-19T05:54:05.677Z,97.10
2019-05-19T05:56:33.903Z,96.30
2019-05-19T05:59:02.178Z,95.60
2019-05-19T06:01:30.433Z,94.30
2019-05-19T06:04:05.682Z,93.70
2019-05-19T06:06:33.936Z,92.90
2019-05-19T06:09:02.186Z,92.00
2019-05-19T06:11:30.461Z,91.50
2019-05-19T06:13:58.787Z,90.80
2019-05-19T06:16:27.078Z,90.90
2019-05-19T06:18:56.875Z,90.70
2019-05-19T06:21:25.268Z,90.50
2019-05-19T06:23:53.620Z,90.30
2019-05-19T06:26:21.906Z,90.70
2019-05-19T06:28:50.187Z,91.00
2019-05-19T06:31:18.400Z,90.10
2019-05-19T06:33:46.672Z,89.50
2019-05-19T06:36:14.946Z,88.30
2019-05-19T06:38:43.203Z,88.60
2019-05-19T06:41:11.554Z,87.00
2019-05-19T06:43:39.821Z,84.90
2019-05-19T06:46:08.127Z,84.10
2019-05-19T06:48:36.428Z,84.60
2019-05-19T06:51:04.675Z,81.30
2019-05-19T06:53:32.904Z,81.60
2019-05-19T06:56:01.143Z,79.90
2019-05-19T06:58:29.391Z,79.60
2019-05-19T07:00:59.234Z,79.80
2019-05-19T07:03:27.769Z,78.70
2019-05-19T07:05:56.016Z,75.90
2019-05-19T07:08:24.275Z,75.00
2019-05-19T07:10:52.517Z,71.50
2019-05-19T07:13:20.758Z,69.70
2019-05-19T07:15:48.995Z,67.30
2019-05-19T07:18:17.266Z,67.80
2019-05-19T07:20:45.496Z,68.60
2019-05-19T07:23:27.003Z,69.30
2019-05-19T07:25:43.981Z,68.50
2019-05-19T07:28:12.297Z,68.70
2019-05-19T07:30:40.540Z,69.10
2019-05-19T07:33:08.804Z,67.90
2019-05-19T07:35:37.130Z,69.10
2019-05-19T07:38:07.440Z,68.90
2019-05-19T07:40:35.372Z,69.60
2019-05-19T07:43:03.685Z,64.90
2019-05-19T07:45:31.957Z,62.40
2019-05-19T07:48:00.184Z,60.80
2019-05-19T07:50:28.439Z,60.90
2019-05-19T07:52:56.666Z,59.40
2019-05-19T07:55:24.936Z,58.00
2019-05-19T07:57:53.169Z,55.70
2019-05-19T08:00:21.412Z,51.80
2019-05-19T08:02:49.722Z,50.00
2019-05-19T08:05:17.963Z,51.20
2019-05-19T08:07:46.339Z,51.90
2019-05-19T08:10:14.752Z,51.80
2019-05-19T08:12:43.007Z,52.20
2019-05-19T08:15:11.242Z,52.80
2019-05-19T08:17:39.497Z,51.10
2019-05-19T08:20:08.013Z,50.40
2019-05-19T08:22:36.279Z,48.40
2019-05-19T08:25:08.980Z,47.30
2019-05-19T08:27:37.262Z,46.80
2019-05-19T08:30:08.949Z,47.40
2019-05-19T08:32:37.188Z,47.50
2019-05-19T08:35:06.704Z,46.00
2019-05-19T08:37:34.934Z,45.50
2019-05-19T08:40:03.392Z,46.20
2019-05-19T08:44:59.755Z,46.00
2019-05-19T08:47:28.020Z,48.70
2019-05-19T08:49:56.261Z,47.40
2019-05-19T08:52:24.519Z,46.40
2019-05-19T08:54:52.759Z,45.30
2019-05-19T08:57:21.003Z,43.50
2019-05-19T08:59:49.292Z,45.30
2019-05-19T09:02:19.202Z,44.80
2019-05-19T09:04:47.479Z,46.80
2019-05-19T09:07:15.781Z,46.30
2019-05-19T09:09:44.038Z,46.50
2019-05-19T09:12:12.300Z,47.80
2019-05-19T09:14:40.523Z,47.40
2019-05-19T09:17:08.777Z,47.50
2019-05-19T09:19:37.001Z,48.20
2019-05-19T09:22:05.309Z,47.30
2019-05-19T09:24:36.678Z,44.40
2019-05-19T09:27:04.805Z,45.40
2019-05-19T09:29:33.013Z,45.30
2019-05-19T09:32:01.300Z,43.80
2019-05-19T09:34:29.573Z,41.90
2019-05-19T09:36:57.835Z,41.80
2019-05-19T09:39:26.091Z,40.70
2019-05-19T09:41:54.323Z,40.10
2019-05-19T09:44:23.747Z,38.70
2019-05-19T09:46:51.330Z,40.00
2019-05-19T09:49:32.088Z,37.90
2019-05-19T09:52:00.985Z,37.50
2019-05-19T09:54:42.739Z,37.30
2019-05-19T09:56:59.908Z,36.80
2019-05-19T09:59:28.695Z,36.70
2019-05-19T10:01:56.935Z,36.40
2019-05-19T10:04:25.183Z,36.10
2019-05-19T10:06:53.441Z,34.80
2019-05-19T10:09:44.612Z,35.50
2019-05-19T10:12:12.849Z,34.00
2019-05-19T10:14:41.125Z,34.60
2019-05-19T10:17:09.384Z,36.20
2019-05-19T10:19:37.638Z,35.80
2019-05-19T10:22:05.864Z,36.70
2019-05-19T10:24:34.134Z,36.60
2019-05-19T10:27:02.391Z,35.00
2019-05-19T10:29:30.626Z,36.00
2019-05-19T10:31:58.896Z,37.20
2019-05-19T10:34:27.139Z,34.50
2019-05-19T10:37:01.338Z,32.80
2019-05-19T10:39:29.603Z,33.90
2019-05-19T10:41:57.842Z,32.60
2019-05-19T10:44:26.076Z,32.50
2019-05-19T10:46:54.352Z,32.20
2019-05-19T10:49:22.612Z,34.40
2019-05-19T10:51:50.866Z,35.00
2019-05-19T10:54:19.137Z,34.20
2019-05-19T10:56:47.401Z,35.40
2019-05-19T10:59:15.715Z,37.70
2019-05-19T11:01:43.953Z,34.10
2019-05-19T11:04:12.223Z,32.50
2019-05-19T11:06:40.434Z,32.40
2019-05-19T11:09:08.683Z,32.20
2019-05-19T11:11:37.690Z,32.10
2019-05-19T11:14:05.947Z,33.60
2019-05-19T11:16:34.177Z,34.80
2019-05-19T11:19:02.430Z,37.80
2019-05-19T11:21:30.676Z,37.00
2019-05-19T11:23:58.923Z,39.80
2019-05-19T11:26:27.173Z,41.90
2019-05-19T11:28:55.419Z,44.50
2019-05-19T11:31:29.770Z,46.60
2019-05-19T11:33:58.159Z,47.30
2019-05-19T11:36:26.390Z,47.60
2019-05-19T11:41:22.790Z,49.20
2019-05-19T11:43:51.019Z,49.60
2019-05-19T11:46:19.320Z,48.90
2019-05-19T11:48:47.598Z,46.10
2019-05-19T11:51:15.861Z,41.30
2019-05-19T11:53:44.079Z,36.80
2019-05-19T11:56:12.370Z,33.90
2019-05-19T11:58:40.659Z,34.00
2019-05-19T12:01:08.924Z,35.50
2019-05-19T12:03:37.258Z,31.30
2019-05-19T12:06:05.486Z,33.30
2019-05-19T12:08:33.815Z,34.20
2019-05-19T12:11:02.081Z,34.10
2019-05-19T12:13:30.303Z,31.10
2019-05-19T12:15:58.640Z,31.80
2019-05-19T12:18:26.935Z,30.70
2019-05-19T12:20:55.181Z,31.10
2019-05-19T12:23:23.418Z,30.90
2019-05-19T12:25:51.672Z,32.40
2019-05-19T12:28:19.903Z,29.90
2019-05-19T12:30:48.123Z,30.00
2019-05-19T12:33:16.384Z,29.80
2019-05-19T12:35:44.660Z,30.20
2019-05-19T12:38:12.958Z,30.60
2019-05-19T12:40:41.764Z,29.80
2019-05-19T12:43:10.107Z,29.80
2019-05-19T12:45:38.362Z,28.80
2019-05-19T12:48:06.611Z,29.50
2019-05-19T12:50:34.866Z,29.60
2019-05-19T12:53:03.122Z,29.60
2019-05-19T12:55:31.362Z,28.80
2019-05-19T12:57:59.602Z,28.40
2019-05-19T13:00:27.839Z,29.40
2019-05-19T13:02:56.119Z,30.00
2019-05-19T13:05:24.475Z,29.70
2019-05-19T13:07:52.746Z,31.60
2019-05-19T13:10:20.995Z,31.90
2019-05-19T13:12:49.238Z,31.50
2019-05-19T13:15:17.479Z,30.00
2019-05-19T13:17:45.739Z,29.20
2019-05-19T13:20:14.064Z,31.40
2019-05-19T13:22:42.397Z,30.00
2019-05-19T13:25:16.425Z,31.20
2019-05-19T13:27:44.652Z,34.80
2019-05-19T13:30:13.714Z,36.50
2019-05-19T13:32:42.035Z,37.30
2019-05-19T13:35:10.255Z,37.50
2019-05-19T13:37:38.524Z,38.00
2019-05-19T13:40:06.835Z,33.70
2019-05-19T13:42:35.275Z,32.50
2019-05-19T13:45:04.688Z,29.80
2019-05-19T13:47:32.965Z,30.20
2019-05-19T13:50:01.184Z,33.10
2019-05-19T13:52:29.446Z,33.80
2019-05-19T13:54:57.809Z,33.70
2019-05-19T13:57:26.313Z,34.90
2019-05-19T13:59:54.569Z,34.50
2019-05-19T14:02:22.821Z,33.60
2019-05-19T14:04:51.085Z,32.60
2019-05-19T14:07:19.328Z,32.00
2019-05-19T14:09:47.585Z,36.70
2019-05-19T14:12:15.930Z,39.60
2019-05-19T14:14:44.169Z,40.70
2019-05-19T14:17:12.428Z,40.50
2019-05-19T14:19:40.837Z,40.40
2019-05-19T14:22:09.099Z,40.90
2019-05-19T14:24:37.429Z,41.40
2019-05-19T14:27:05.753Z,42.90
2019-05-19T14:29:34.114Z,42.90
2019-05-19T14:32:02.359Z,45.70
2019-05-19T14:34:30.600Z,49.00
2019-05-19T14:36:59.071Z,49.50
2019-05-19T14:39:27.369Z,50.70
2019-05-19T14:41:57.350Z,56.20
2019-05-19T14:44:25.676Z,68.60
2019-05-19T14:46:53.921Z,78.60
2019-05-19T14:49:22.169Z,90.10
2019-05-19T14:51:50.545Z,93.60
2019-05-19T14:54:18.787Z,95.30
2019-05-19T14:56:47.042Z,98.30
2019-05-19T14:59:15.301Z,99.90
2019-05-19T15:01:43.543Z,99.90
2019-05-19T15:04:11.780Z,99.90
2019-05-19T15:06:40.023Z,99.90
2019-05-19T15:09:08.318Z,99.90
2019-05-19T15:11:36.565Z,99.90
2019-05-19T15:14:04.814Z,99.90
2019-05-19T15:16:33.057Z,99.90
2019-05-19T15:19:01.347Z,99.90
2019-05-19T15:21:31.864Z,99.90
2019-05-19T15:23:59.597Z,99.90
2019-05-19T15:26:27.942Z,99.90
2019-05-19T15:28:56.201Z,99.90
2019-05-19T15:31:24.425Z,99.90
2019-05-19T15:33:52.675Z,99.90
2019-05-19T15:36:20.906Z,99.90
2019-05-19T15:38:49.160Z,99.90
2019-05-19T15:41:17.390Z,99.90
2019-05-19T15:43:45.651Z,99.90
2019-05-19T15:46:13.906Z,99.90
2019-05-19T15:48:42.160Z,99.90
2019-05-19T15:51:10.392Z,99.90
2019-05-19T15:53:38.655Z,99.90
2019-05-19T15:56:06.891Z,99.90
2019-05-19T15:58:35.164Z,99.90
2019-05-19T16:01:03.404Z,99.90
2019-05-19T16:03:31.654Z,99.90
2019-05-19T16:05:59.987Z,99.90
2019-05-19T16:08:28.216Z,99.90
2019-05-19T16:10:56.465Z,99.90
2019-05-19T16:13:24.700Z,99.90
2019-05-19T16:15:52.959Z,99.90
2019-05-19T16:18:21.270Z,99.90
2019-05-19T16:20:49.535Z,99.90
2019-05-19T16:23:17.786Z,99.90
2019-05-19T16:25:46.066Z,99.90
2019-05-19T16:28:14.346Z,99.90
2019-05-19T16:30:42.585Z,99.90
2019-05-19T16:33:10.853Z,99.90
2019-05-19T16:35:39.147Z,99.90
2019-05-19T16:38:07.408Z,99.90
2019-05-19T16:40:35.648Z,99.90
2019-05-19T16:43:03.895Z,99.90
2019-05-19T16:45:32.250Z,99.50
2019-05-19T16:48:00.659Z,98.80
2019-05-19T16:50:28.892Z,97.90
2019-05-19T16:52:57.174Z,97.90
2019-05-19T16:55:27.098Z,98.20
2019-05-19T16:57:55.720Z,98.40
2019-05-19T17:00:24.342Z,97.10
2019-05-19T17:02:52.623Z,96.30
2019-05-19T17:05:20.872Z,96.50
2019-05-19T17:07:49.107Z,96.70
2019-05-19T17:10:17.369Z,96.70
2019-05-19T17:12:45.614Z,96.30
2019-05-19T17:15:13.871Z,97.00
2019-05-19T17:17:42.100Z,97.50
2019-05-19T17:20:10.349Z,98.60
2019-05-19T17:22:38.620Z,99.40
2019-05-19T17:25:07.157Z,99.80
2019-05-19T17:27:35.479Z,99.10
2019-05-19T17:30:07.662Z,99.00
2019-05-19T17:32:35.937Z,99.00
2019-05-19T17:35:05.804Z,99.60
2019-05-19T17:37:34.043Z,98.20
2019-05-19T17:40:02.321Z,98.30
2019-05-19T17:42:30.542Z,97.70
2019-05-19T17:44:58.775Z,96.90
2019-05-19T17:47:27.035Z,96.90
2019-05-19T17:49:55.271Z,96.70
2019-05-19T17:52:23.561Z,97.00
2019-05-19T17:54:51.813Z,96.90
2019-05-19T17:57:20.050Z,97.80
2019-05-19T17:59:48.763Z,98.10
2019-05-19T18:02:17.011Z,97.60
2019-05-19T18:04:45.282Z,97.60
2019-05-19T18:07:13.551Z,97.60
2019-05-19T18:09:41.805Z,99.30
2019-05-19T18:12:10.058Z,99.90
2019-05-19T18:14:38.534Z,99.90
2019-05-19T18:17:07.096Z,99.90
2019-05-19T18:19:35.333Z,99.90
2019-05-19T18:22:04.507Z,99.90
2019-05-19T18:24:32.805Z,99.90
2019-05-19T18:27:01.045Z,99.90
2019-05-19T18:29:31.496Z,99.90
2019-05-19T18:31:59.285Z,99.90
2019-05-19T18:34:27.562Z,99.90
2019-05-19T18:36:55.845Z,99.90
2019-05-19T18:39:24.178Z,99.90
2019-05-19T18:41:52.415Z,99.90
2019-05-19T18:44:20.683Z,99.90
2019-05-19T18:46:48.926Z,99.90
2019-05-19T18:49:17.191Z,99.90
2019-05-19T18:51:45.535Z,99.90
2019-05-19T18:54:13.827Z,99.90
2019-05-19T18:56:42.100Z,99.90
2019-05-19T18:59:10.347Z,99.90
2019-05-19T19:01:38.666Z,99.90
2019-05-19T19:04:06.911Z,99.90
2019-05-19T19:06:35.148Z,99.90
2019-05-19T19:09:04.357Z,99.90
2019-05-19T19:11:32.655Z,99.90
2019-05-19T19:14:01.139Z,99.90
2019-05-19T19:16:29.368Z,99.90
2019-05-19T19:18:57.628Z,99.90
2019-05-19T19:21:25.887Z,99.90
2019-05-19T19:23:54.160Z,99.90
2019-05-19T19:26:22.424Z,99.90
2019-05-19T19:28:50.754Z,99.90
2019-05-19T19:31:19.050Z,99.90
2019-05-19T19:33:47.304Z,99.90
2019-05-19T19:36:15.567Z,99.90
2019-05-19T19:38:43.813Z,99.90
2019-05-19T19:41:12.094Z,99.90
2019-05-19T19:43:40.334Z,99.90
2019-05-19T19:46:08.607Z,99.90
2019-05-19T19:48:36.864Z,99.90
2019-05-19T19:51:05.115Z,99.90
2019-05-19T19:53:33.391Z,99.90
2019-05-19T19:56:01.652Z,99.90
2019-05-19T19:58:29.894Z,99.90
2019-05-19T20:00:58.147Z,99.90
2019-05-19T20:03:26.443Z,99.90
2019-05-19T20:05:54.776Z,99.90
2019-05-19T20:08:23.085Z,99.90
2019-05-19T20:10:51.523Z,99.90
2019-05-19T20:13:19.982Z,99.90
2019-05-19T20:15:48.266Z,99.90
2019-05-19T20:18:16.534Z,99.90
2019-05-19T20:20:44.866Z,99.90
2019-05-19T20:23:13.170Z,99.90
2019-05-19T20:25:41.501Z,99.90
2019-05-19T20:28:09.743Z,99.90
2019-05-19T20:30:38.054Z,99.90
2019-05-19T20:33:06.367Z,99.90
2019-05-19T20:35:34.653Z,99.90
2019-05-19T20:38:02.989Z,99.90
2019-05-19T20:40:31.311Z,99.90
2019-05-19T20:42:59.568Z,99.90
2019-05-19T20:45:27.854Z,99.90
2019-05-19T20:47:56.095Z,99.90
2019-05-19T20:50:24.393Z,99.90
2019-05-19T20:52:52.634Z,99.90
2019-05-19T20:55:20.979Z,99.90
2019-05-19T20:57:49.215Z,99.90
2019-05-19T21:00:17.609Z,99.90
2019-05-19T21:02:45.895Z,99.90
2019-05-19T21:05:14.166Z,99.90
2019-05-19T21:07:42.413Z,99.90
2019-05-19T21:10:10.700Z,99.90
2019-05-19T21:12:39.033Z,99.90
2019-05-19T21:15:07.254Z,99.90
2019-05-19T21:17:35.530Z,99.90
2019-05-19T21:20:05.160Z,99.90
2019-05-19T21:22:33.544Z,99.90
2019-05-19T21:25:01.836Z,99.90
2019-05-19T21:27:30.161Z,99.90
2019-05-19T21:29:58.446Z,99.90
2019-05-19T21:32:26.149Z,99.90
2019-05-19T21:34:54.362Z,99.90
2019-05-19T21:37:22.597Z,99.90
2019-05-19T21:39:50.810Z,99.90
2019-05-19T21:42:19.047Z,99.90
2019-05-19T21:44:47.260Z,99.90
2019-05-19T21:47:15.478Z,99.90
2019-05-19T21:49:43.689Z,99.90
2019-05-19T21:52:11.895Z,99.90
2019-05-19T21:54:40.114Z,99.90
2019-05-19T21:57:08.330Z,99.90
2019-05-19T21:59:36.552Z,99.90
2019-05-19T22:02:05.151Z,99.90
2019-05-19T22:04:33.396Z,99.90
2019-05-19T22:07:12.152Z,99.90
2019-05-19T22:09:40.408Z,99.90
2019-05-19T22:12:08.633Z,99.90
2019-05-19T22:14:36.840Z,99.90
2019-05-19T22:17:05.073Z,99.90
2019-05-19T22:19:33.287Z,99.90
2019-05-19T22:22:01.516Z,99.90
2019-05-19T22:24:29.740Z,99.90
2019-05-19T22:26:57.967Z,99.90
2019-05-19T22:29:26.253Z,99.90
2019-05-19T22:31:54.488Z,99.90
2019-05-19T22:34:22.708Z,99.90
2019-05-19T22:36:50.937Z,99.90
2019-05-19T22:39:19.144Z,99.90
2019-05-19T22:41:47.361Z,99.90
2019-05-19T22:44:15.599Z,99.90
2019-05-19T22:46:43.836Z,99.90
2019-05-19T22:49:12.060Z,99.90
2019-05-19T22:51:40.275Z,99.90
2019-05-19T22:54:08.508Z,99.90
2019-05-19T22:56:36.713Z,99.90
2019-05-19T22:59:17.536Z,99.90
2019-05-19T23:01:34.878Z,99.90
2019-05-19T23:04:03.107Z,99.90
2019-05-19T23:06:31.313Z,99.90
2019-05-19T23:08:59.554Z,99.90
2019-05-19T23:11:27.767Z,99.90
2019-05-19T23:13:55.972Z,99.90
2019-05-19T23:16:24.194Z,99.90
2019-05-19T23:18:52.410Z,99.90
2019-05-19T23:21:20.628Z,99.90
2019-05-19T23:23:48.836Z,99.90
2019-05-19T23:26:17.061Z,99.90
2019-05-19T23:28:45.273Z,99.90
2019-05-19T23:31:13.511Z,99.90
2019-05-19T23:33:41.732Z,99.90
2019-05-19T23:36:09.944Z,99.90
2019-05-19T23:38:38.256Z,99.90
2019-05-19T23:41:06.461Z,99.90
2019-05-19T23:43:34.677Z,99.90
2019-05-19T23:46:02.905Z,99.90
2019-05-19T23:48:31.112Z,99.90
2019-05-19T23:50:59.328Z,99.90
2019-05-19T23:53:27.551Z,99.90
2019-05-19T23:55:55.759Z,99.90
2019-05-19T23:58:23.980Z,99.90
